sensor_id;sensor_type;location;lat;lon;timestamp;P1;durP1;ratioP1;P2;durP2;ratioP2
92;SDS011;16232;48.800;9.002;2023-07-20T00:02:21;2.60;;;2.13;;
92;SDS011;16232;48.800;9.002;2023-07-20T00:04:48;2.87;;;1.70;;
92;SDS011;16232;48.800;9.002;2023-07-20T00:07:15;2.33;;;1.93;;
92;SDS011;16232;48.800;9.002;2023-07-20T00:09:43;4.30;;;2.10;;
92;SDS011;16232;48.800;9.002;2023-07-20T00:12:10;2.50;;;1.40;;
92;SDS011;16232;48.800;9.002;2023-07-20T00:14:37;2.13;;;1.67;;
92;SDS011;16232;48.800;9.002;2023-07-20T00:17:05;2.27;;;1.80;;
92;SDS011;16232;48.800;9.002;2023-07-20T00:19:34;2.77;;;1.77;;
92;SDS011;16232;48.800;9.002;2023-07-20T00:22:01;3.57;;;1.87;;
92;SDS011;16232;48.800;9.002;2023-07-20T00:24:30;2.90;;;1.80;;
92;SDS011;16232;48.800;9.002;2023-07-20T00:26:57;2.13;;;1.83;;
92;SDS011;16232;48.800;9.002;2023-07-20T00:29:26;3.80;;;2.00;;
92;SDS011;16232;48.800;9.002;2023-07-20T00:31:53;3.03;;;1.87;;
92;SDS011;16232;48.800;9.002;2023-07-20T00:34:21;2.47;;;1.87;;
92;SDS011;16232;48.800;9.002;2023-07-20T00:36:50;3.60;;;2.10;;
92;SDS011;16232;48.800;9.002;2023-07-20T00:39:17;3.37;;;1.87;;
92;SDS011;16232;48.800;9.002;2023-07-20T00:41:44;2.20;;;1.73;;
92;SDS011;16232;48.800;9.002;2023-07-20T00:44:12;2.67;;;1.83;;
92;SDS011;16232;48.800;9.002;2023-07-20T00:46:39;3.37;;;2.00;;
92;SDS011;16232;48.800;9.002;2023-07-20T00:49:09;2.43;;;1.80;;
92;SDS011;16232;48.800;9.002;2023-07-20T00:51:36;2.47;;;1.80;;
92;SDS011;16232;48.800;9.002;2023-07-20T00:54:05;4.00;;;2.57;;
92;SDS011;16232;48.800;9.002;2023-07-20T00:56:33;3.97;;;2.00;;
92;SDS011;16232;48.800;9.002;2023-07-20T00:59:00;2.37;;;1.83;;
92;SDS011;16232;48.800;9.002;2023-07-20T01:01:28;3.70;;;1.70;;
92;SDS011;16232;48.800;9.002;2023-07-20T01:03:55;4.27;;;1.80;;
92;SDS011;16232;48.800;9.002;2023-07-20T01:06:24;2.97;;;1.97;;
92;SDS011;16232;48.800;9.002;2023-07-20T01:08:56;3.60;;;2.13;;
92;SDS011;16232;48.800;9.002;2023-07-20T01:11:28;2.27;;;2.03;;
92;SDS011;16232;48.800;9.002;2023-07-20T01:13:58;3.03;;;2.20;;
92;SDS011;16232;48.800;9.002;2023-07-20T01:16:26;2.77;;;2.03;;
92;SDS011;16232;48.800;9.002;2023-07-20T01:18:54;2.57;;;1.70;;
92;SDS011;16232;48.800;9.002;2023-07-20T01:21:24;2.60;;;1.80;;
92;SDS011;16232;48.800;9.002;2023-07-20T01:24:08;3.20;;;2.07;;
92;SDS011;16232;48.800;9.002;2023-07-20T01:26:57;3.63;;;2.00;;
92;SDS011;16232;48.800;9.002;2023-07-20T01:29:31;2.13;;;1.77;;
92;SDS011;16232;48.800;9.002;2023-07-20T01:32:04;2.63;;;2.03;;
92;SDS011;16232;48.800;9.002;2023-07-20T01:34:33;4.00;;;2.27;;
92;SDS011;16232;48.800;9.002;2023-07-20T01:37:01;3.10;;;2.20;;
92;SDS011;16232;48.800;9.002;2023-07-20T01:39:29;2.80;;;2.07;;
92;SDS011;16232;48.800;9.002;2023-07-20T01:41:57;3.67;;;2.23;;
92;SDS011;16232;48.800;9.002;2023-07-20T01:44:25;3.80;;;2.07;;
92;SDS011;16232;48.800;9.002;2023-07-20T01:46:52;2.83;;;2.10;;
92;SDS011;16232;48.800;9.002;2023-07-20T01:49:21;2.67;;;2.30;;
92;SDS011;16232;48.800;9.002;2023-07-20T01:51:48;2.40;;;2.20;;
92;SDS011;16232;48.800;9.002;2023-07-20T01:54:15;3.53;;;1.80;;
92;SDS011;16232;48.800;9.002;2023-07-20T01:56:43;4.07;;;2.53;;
92;SDS011;16232;48.800;9.002;2023-07-20T01:59:10;4.27;;;2.10;;
92;SDS011;16232;48.800;9.002;2023-07-20T02:01:38;2.47;;;2.20;;
92;SDS011;16232;48.800;9.002;2023-07-20T02:04:05;2.87;;;2.27;;
92;SDS011;16232;48.800;9.002;2023-07-20T02:06:34;3.63;;;2.17;;
92;SDS011;16232;48.800;9.002;2023-07-20T02:09:01;2.47;;;2.27;;
92;SDS011;16232;48.800;9.002;2023-07-20T02:11:28;3.97;;;2.60;;
92;SDS011;16232;48.800;9.002;2023-07-20T02:13:56;2.40;;;2.20;;
92;SDS011;16232;48.800;9.002;2023-07-20T02:16:23;3.77;;;2.50;;
92;SDS011;16232;48.800;9.002;2023-07-20T02:18:50;3.53;;;2.23;;
92;SDS011;16232;48.800;9.002;2023-07-20T02:21:18;4.37;;;2.27;;
92;SDS011;16232;48.800;9.002;2023-07-20T02:23:46;2.93;;;2.63;;
92;SDS011;16232;48.800;9.002;2023-07-20T02:26:13;4.77;;;2.10;;
92;SDS011;16232;48.800;9.002;2023-07-20T02:28:41;2.83;;;2.53;;
92;SDS011;16232;48.800;9.002;2023-07-20T02:31:09;4.63;;;2.70;;
92;SDS011;16232;48.800;9.002;2023-07-20T02:33:36;3.83;;;2.23;;
92;SDS011;16232;48.800;9.002;2023-07-20T02:36:04;3.17;;;2.80;;
92;SDS011;16232;48.800;9.002;2023-07-20T02:38:31;3.97;;;2.50;;
92;SDS011;16232;48.800;9.002;2023-07-20T02:41:00;2.83;;;2.40;;
92;SDS011;16232;48.800;9.002;2023-07-20T02:43:27;3.80;;;2.50;;
92;SDS011;16232;48.800;9.002;2023-07-20T02:45:55;4.07;;;2.77;;
92;SDS011;16232;48.800;9.002;2023-07-20T02:48:22;3.97;;;2.70;;
92;SDS011;16232;48.800;9.002;2023-07-20T02:50:49;4.63;;;2.20;;
92;SDS011;16232;48.800;9.002;2023-07-20T02:53:17;3.37;;;2.70;;
92;SDS011;16232;48.800;9.002;2023-07-20T02:55:44;3.90;;;2.80;;
92;SDS011;16232;48.800;9.002;2023-07-20T02:58:13;3.73;;;2.40;;
92;SDS011;16232;48.800;9.002;2023-07-20T03:00:42;3.70;;;2.77;;
92;SDS011;16232;48.800;9.002;2023-07-20T03:03:09;3.70;;;2.67;;
92;SDS011;16232;48.800;9.002;2023-07-20T03:05:36;3.20;;;2.73;;
92;SDS011;16232;48.800;9.002;2023-07-20T03:08:05;3.27;;;2.60;;
92;SDS011;16232;48.800;9.002;2023-07-20T03:10:33;3.43;;;2.77;;
92;SDS011;16232;48.800;9.002;2023-07-20T03:13:00;3.43;;;3.10;;
92;SDS011;16232;48.800;9.002;2023-07-20T03:15:29;3.83;;;2.73;;
92;SDS011;16232;48.800;9.002;2023-07-20T03:17:56;4.03;;;2.60;;
92;SDS011;16232;48.800;9.002;2023-07-20T03:20:24;4.37;;;3.20;;
92;SDS011;16232;48.800;9.002;2023-07-20T03:22:52;4.60;;;3.07;;
92;SDS011;16232;48.800;9.002;2023-07-20T03:25:19;3.83;;;2.90;;
92;SDS011;16232;48.800;9.002;2023-07-20T03:27:46;2.87;;;2.43;;
92;SDS011;16232;48.800;9.002;2023-07-20T03:30:13;5.63;;;2.80;;
92;SDS011;16232;48.800;9.002;2023-07-20T03:32:42;3.47;;;2.80;;
92;SDS011;16232;48.800;9.002;2023-07-20T03:35:10;2.70;;;2.50;;
92;SDS011;16232;48.800;9.002;2023-07-20T03:37:37;3.67;;;2.90;;
92;SDS011;16232;48.800;9.002;2023-07-20T03:40:05;4.77;;;2.80;;
92;SDS011;16232;48.800;9.002;2023-07-20T03:42:33;8.20;;;3.13;;
92;SDS011;16232;48.800;9.002;2023-07-20T03:45:00;4.57;;;3.23;;
92;SDS011;16232;48.800;9.002;2023-07-20T03:47:29;5.63;;;2.93;;
92;SDS011;16232;48.800;9.002;2023-07-20T03:49:58;5.43;;;3.37;;
92;SDS011;16232;48.800;9.002;2023-07-20T03:52:25;5.03;;;3.30;;
92;SDS011;16232;48.800;9.002;2023-07-20T03:54:53;5.87;;;3.13;;
92;SDS011;16232;48.800;9.002;2023-07-20T03:57:20;4.50;;;2.73;;
92;SDS011;16232;48.800;9.002;2023-07-20T03:59:47;4.87;;;3.20;;
92;SDS011;16232;48.800;9.002;2023-07-20T04:02:15;3.40;;;3.10;;
92;SDS011;16232;48.800;9.002;2023-07-20T04:04:42;2.90;;;2.70;;
92;SDS011;16232;48.800;9.002;2023-07-20T04:07:11;4.47;;;2.87;;
92;SDS011;16232;48.800;9.002;2023-07-20T04:09:38;3.90;;;2.33;;
92;SDS011;16232;48.800;9.002;2023-07-20T04:12:06;3.83;;;2.80;;
92;SDS011;16232;48.800;9.002;2023-07-20T04:14:33;4.43;;;2.60;;
92;SDS011;16232;48.800;9.002;2023-07-20T04:17:01;5.60;;;2.70;;
92;SDS011;16232;48.800;9.002;2023-07-20T04:19:28;3.23;;;2.83;;
92;SDS011;16232;48.800;9.002;2023-07-20T04:21:56;3.10;;;2.83;;
92;SDS011;16232;48.800;9.002;2023-07-20T04:24:25;2.53;;;2.30;;
92;SDS011;16232;48.800;9.002;2023-07-20T04:26:52;4.13;;;2.60;;
92;SDS011;16232;48.800;9.002;2023-07-20T04:29:19;3.60;;;2.83;;
92;SDS011;16232;48.800;9.002;2023-07-20T04:31:47;3.27;;;2.43;;
92;SDS011;16232;48.800;9.002;2023-07-20T04:34:14;3.43;;;2.63;;
92;SDS011;16232;48.800;9.002;2023-07-20T04:36:41;3.13;;;2.23;;
92;SDS011;16232;48.800;9.002;2023-07-20T04:39:09;2.60;;;2.20;;
92;SDS011;16232;48.800;9.002;2023-07-20T04:41:38;3.70;;;2.33;;
92;SDS011;16232;48.800;9.002;2023-07-20T04:44:05;2.87;;;2.43;;
92;SDS011;16232;48.800;9.002;2023-07-20T04:46:32;3.20;;;2.20;;
92;SDS011;16232;48.800;9.002;2023-07-20T04:49:00;5.07;;;2.40;;
92;SDS011;16232;48.800;9.002;2023-07-20T04:51:27;5.07;;;2.20;;
92;SDS011;16232;48.800;9.002;2023-07-20T04:53:55;4.43;;;2.33;;
92;SDS011;16232;48.800;9.002;2023-07-20T04:56:22;4.47;;;2.63;;
92;SDS011;16232;48.800;9.002;2023-07-20T04:58:51;5.77;;;2.63;;
92;SDS011;16232;48.800;9.002;2023-07-20T05:01:18;2.80;;;2.23;;
92;SDS011;16232;48.800;9.002;2023-07-20T05:03:46;3.10;;;2.20;;
92;SDS011;16232;48.800;9.002;2023-07-20T05:06:13;3.07;;;2.30;;
92;SDS011;16232;48.800;9.002;2023-07-20T05:08:40;3.50;;;2.37;;
92;SDS011;16232;48.800;9.002;2023-07-20T05:11:08;4.07;;;2.50;;
92;SDS011;16232;48.800;9.002;2023-07-20T05:13:35;4.30;;;2.33;;
92;SDS011;16232;48.800;9.002;2023-07-20T05:16:04;4.30;;;2.50;;
92;SDS011;16232;48.800;9.002;2023-07-20T05:18:32;4.30;;;2.10;;
92;SDS011;16232;48.800;9.002;2023-07-20T05:21:00;2.53;;;2.03;;
92;SDS011;16232;48.800;9.002;2023-07-20T05:23:27;3.63;;;2.30;;
92;SDS011;16232;48.800;9.002;2023-07-20T05:25:54;6.20;;;2.57;;
92;SDS011;16232;48.800;9.002;2023-07-20T05:28:22;2.70;;;2.43;;
92;SDS011;16232;48.800;9.002;2023-07-20T05:30:49;3.80;;;2.20;;
92;SDS011;16232;48.800;9.002;2023-07-20T05:33:19;2.37;;;2.07;;
92;SDS011;16232;48.800;9.002;2023-07-20T05:35:46;2.77;;;2.00;;
92;SDS011;16232;48.800;9.002;2023-07-20T05:38:14;3.30;;;1.77;;
92;SDS011;16232;48.800;9.002;2023-07-20T05:40:41;3.20;;;2.10;;
92;SDS011;16232;48.800;9.002;2023-07-20T05:43:10;2.83;;;1.90;;
92;SDS011;16232;48.800;9.002;2023-07-20T05:45:37;2.43;;;2.10;;
92;SDS011;16232;48.800;9.002;2023-07-20T05:48:05;3.10;;;1.87;;
92;SDS011;16232;48.800;9.002;2023-07-20T05:50:36;3.87;;;2.43;;
92;SDS011;16232;48.800;9.002;2023-07-20T05:53:03;3.83;;;2.00;;
92;SDS011;16232;48.800;9.002;2023-07-20T05:55:31;3.40;;;2.23;;
92;SDS011;16232;48.800;9.002;2023-07-20T05:57:59;3.20;;;2.13;;
92;SDS011;16232;48.800;9.002;2023-07-20T06:00:26;3.93;;;1.97;;
92;SDS011;16232;48.800;9.002;2023-07-20T06:02:53;3.33;;;2.10;;
92;SDS011;16232;48.800;9.002;2023-07-20T06:05:21;3.60;;;2.43;;
92;SDS011;16232;48.800;9.002;2023-07-20T06:07:50;2.63;;;2.00;;
92;SDS011;16232;48.800;9.002;2023-07-20T06:10:17;6.70;;;2.20;;
92;SDS011;16232;48.800;9.002;2023-07-20T06:12:44;2.90;;;2.13;;
92;SDS011;16232;48.800;9.002;2023-07-20T06:17:54;6.13;;;2.03;;
92;SDS011;16232;48.800;9.002;2023-07-20T06:20:23;4.13;;;2.60;;
92;SDS011;16232;48.800;9.002;2023-07-20T06:22:51;5.13;;;2.10;;
92;SDS011;16232;48.800;9.002;2023-07-20T06:25:19;3.10;;;1.70;;
92;SDS011;16232;48.800;9.002;2023-07-20T06:27:49;2.50;;;1.90;;
92;SDS011;16232;48.800;9.002;2023-07-20T06:30:17;2.90;;;2.07;;
92;SDS011;16232;48.800;9.002;2023-07-20T06:32:44;4.67;;;2.20;;
92;SDS011;16232;48.800;9.002;2023-07-20T06:35:11;3.87;;;2.10;;
92;SDS011;16232;48.800;9.002;2023-07-20T06:37:38;5.43;;;1.83;;
92;SDS011;16232;48.800;9.002;2023-07-20T06:40:08;2.90;;;1.83;;
92;SDS011;16232;48.800;9.002;2023-07-20T06:42:35;3.00;;;1.90;;
92;SDS011;16232;48.800;9.002;2023-07-20T06:45:03;3.77;;;1.73;;
92;SDS011;16232;48.800;9.002;2023-07-20T06:47:30;3.43;;;1.70;;
92;SDS011;16232;48.800;9.002;2023-07-20T06:49:57;2.60;;;1.97;;
92;SDS011;16232;48.800;9.002;2023-07-20T06:52:25;2.03;;;1.70;;
92;SDS011;16232;48.800;9.002;2023-07-20T06:54:52;4.27;;;1.80;;
92;SDS011;16232;48.800;9.002;2023-07-20T06:57:21;3.13;;;2.17;;
92;SDS011;16232;48.800;9.002;2023-07-20T06:59:48;2.13;;;1.70;;
92;SDS011;16232;48.800;9.002;2023-07-20T07:02:15;4.93;;;1.87;;
92;SDS011;16232;48.800;9.002;2023-07-20T07:04:43;5.03;;;2.07;;
92;SDS011;16232;48.800;9.002;2023-07-20T07:07:10;3.03;;;2.30;;
92;SDS011;16232;48.800;9.002;2023-07-20T07:09:38;4.63;;;1.90;;
92;SDS011;16232;48.800;9.002;2023-07-20T07:12:05;3.83;;;2.07;;
92;SDS011;16232;48.800;9.002;2023-07-20T07:14:34;3.53;;;1.77;;
92;SDS011;16232;48.800;9.002;2023-07-20T07:17:01;2.60;;;1.73;;
92;SDS011;16232;48.800;9.002;2023-07-20T07:19:29;3.20;;;1.50;;
92;SDS011;16232;48.800;9.002;2023-07-20T07:21:56;3.90;;;1.67;;
92;SDS011;16232;48.800;9.002;2023-07-20T07:24:23;1.43;;;1.33;;
92;SDS011;16232;48.800;9.002;2023-07-20T07:26:51;6.10;;;2.23;;
92;SDS011;16232;48.800;9.002;2023-07-20T07:29:18;2.40;;;1.67;;
92;SDS011;16232;48.800;9.002;2023-07-20T07:31:47;2.90;;;1.60;;
92;SDS011;16232;48.800;9.002;2023-07-20T07:34:14;4.07;;;1.70;;
92;SDS011;16232;48.800;9.002;2023-07-20T07:36:42;2.63;;;1.63;;
92;SDS011;16232;48.800;9.002;2023-07-20T07:39:10;4.07;;;1.73;;
92;SDS011;16232;48.800;9.002;2023-07-20T07:41:37;1.97;;;1.60;;
92;SDS011;16232;48.800;9.002;2023-07-20T07:44:05;2.43;;;1.83;;
92;SDS011;16232;48.800;9.002;2023-07-20T07:46:32;3.20;;;1.70;;
92;SDS011;16232;48.800;9.002;2023-07-20T07:49:01;3.47;;;1.90;;
92;SDS011;16232;48.800;9.002;2023-07-20T07:51:29;1.67;;;1.40;;
92;SDS011;16232;48.800;9.002;2023-07-20T07:53:56;3.13;;;1.60;;
92;SDS011;16232;48.800;9.002;2023-07-20T07:56:23;2.90;;;1.70;;
92;SDS011;16232;48.800;9.002;2023-07-20T07:58:51;2.47;;;1.90;;
92;SDS011;16232;48.800;9.002;2023-07-20T08:01:18;2.97;;;1.83;;
92;SDS011;16232;48.800;9.002;2023-07-20T08:03:45;2.80;;;1.53;;
92;SDS011;16232;48.800;9.002;2023-07-20T08:06:14;2.70;;;1.93;;
92;SDS011;16232;48.800;9.002;2023-07-20T08:08:42;3.23;;;1.87;;
92;SDS011;16232;48.800;9.002;2023-07-20T08:11:09;2.90;;;1.80;;
92;SDS011;16232;48.800;9.002;2023-07-20T08:13:36;4.83;;;1.63;;
92;SDS011;16232;48.800;9.002;2023-07-20T08:16:04;2.67;;;1.60;;
92;SDS011;16232;48.800;9.002;2023-07-20T08:18:31;3.00;;;1.60;;
92;SDS011;16232;48.800;9.002;2023-07-20T08:20:58;3.53;;;1.83;;
92;SDS011;16232;48.800;9.002;2023-07-20T08:23:27;4.73;;;1.40;;
92;SDS011;16232;48.800;9.002;2023-07-20T08:25:54;1.80;;;1.53;;
92;SDS011;16232;48.800;9.002;2023-07-20T08:28:21;1.70;;;1.40;;
92;SDS011;16232;48.800;9.002;2023-07-20T08:30:49;1.60;;;1.47;;
92;SDS011;16232;48.800;9.002;2023-07-20T08:33:17;1.80;;;1.60;;
92;SDS011;16232;48.800;9.002;2023-07-20T08:35:45;2.03;;;1.30;;
92;SDS011;16232;48.800;9.002;2023-07-20T08:38:12;2.20;;;1.63;;
92;SDS011;16232;48.800;9.002;2023-07-20T08:40:41;3.50;;;1.90;;
92;SDS011;16232;48.800;9.002;2023-07-20T08:43:10;2.43;;;1.57;;
92;SDS011;16232;48.800;9.002;2023-07-20T08:45:38;2.60;;;1.70;;
92;SDS011;16232;48.800;9.002;2023-07-20T08:48:05;1.57;;;1.47;;
92;SDS011;16232;48.800;9.002;2023-07-20T08:50:33;2.03;;;1.50;;
92;SDS011;16232;48.800;9.002;2023-07-20T08:53:01;2.83;;;1.50;;
92;SDS011;16232;48.800;9.002;2023-07-20T08:55:29;3.10;;;1.60;;
92;SDS011;16232;48.800;9.002;2023-07-20T08:57:58;2.40;;;1.80;;
92;SDS011;16232;48.800;9.002;2023-07-20T09:00:27;3.10;;;1.40;;
92;SDS011;16232;48.800;9.002;2023-07-20T09:02:55;2.63;;;1.90;;
92;SDS011;16232;48.800;9.002;2023-07-20T09:05:23;2.23;;;1.70;;
92;SDS011;16232;48.800;9.002;2023-07-20T09:07:51;3.23;;;1.90;;
92;SDS011;16232;48.800;9.002;2023-07-20T09:10:19;4.20;;;1.83;;
92;SDS011;16232;48.800;9.002;2023-07-20T09:12:47;1.73;;;1.40;;
92;SDS011;16232;48.800;9.002;2023-07-20T09:15:16;4.77;;;1.40;;
92;SDS011;16232;48.800;9.002;2023-07-20T09:17:47;2.77;;;1.33;;
92;SDS011;16232;48.800;9.002;2023-07-20T09:20:15;1.60;;;1.20;;
92;SDS011;16232;48.800;9.002;2023-07-20T09:22:42;4.23;;;1.50;;
92;SDS011;16232;48.800;9.002;2023-07-20T09:25:11;1.63;;;1.20;;
92;SDS011;16232;48.800;9.002;2023-07-20T09:27:39;1.40;;;1.30;;
92;SDS011;16232;48.800;9.002;2023-07-20T09:30:07;2.07;;;1.27;;
92;SDS011;16232;48.800;9.002;2023-07-20T09:32:40;1.57;;;1.30;;
92;SDS011;16232;48.800;9.002;2023-07-20T09:35:12;2.33;;;1.50;;
92;SDS011;16232;48.800;9.002;2023-07-20T09:37:40;2.27;;;1.27;;
92;SDS011;16232;48.800;9.002;2023-07-20T09:40:08;3.23;;;1.53;;
92;SDS011;16232;48.800;9.002;2023-07-20T09:42:35;3.17;;;1.43;;
92;SDS011;16232;48.800;9.002;2023-07-20T09:45:06;2.23;;;1.40;;
92;SDS011;16232;48.800;9.002;2023-07-20T09:47:35;2.87;;;1.40;;
92;SDS011;16232;48.800;9.002;2023-07-20T09:50:05;1.80;;;1.17;;
92;SDS011;16232;48.800;9.002;2023-07-20T09:52:36;1.83;;;1.20;;
92;SDS011;16232;48.800;9.002;2023-07-20T09:55:04;2.57;;;1.20;;
92;SDS011;16232;48.800;9.002;2023-07-20T09:57:32;1.50;;;1.10;;
92;SDS011;16232;48.800;9.002;2023-07-20T10:00:01;1.23;;;1.00;;
92;SDS011;16232;48.800;9.002;2023-07-20T10:02:31;1.50;;;1.17;;
92;SDS011;16232;48.800;9.002;2023-07-20T10:05:01;1.47;;;1.00;;
92;SDS011;16232;48.800;9.002;2023-07-20T10:07:31;1.67;;;1.57;;
92;SDS011;16232;48.800;9.002;2023-07-20T10:09:59;3.37;;;1.30;;
92;SDS011;16232;48.800;9.002;2023-07-20T10:12:29;2.50;;;1.37;;
92;SDS011;16232;48.800;9.002;2023-07-20T10:14:58;1.30;;;0.90;;
92;SDS011;16232;48.800;9.002;2023-07-20T10:17:27;2.53;;;1.30;;
92;SDS011;16232;48.800;9.002;2023-07-20T10:19:54;4.93;;;1.40;;
92;SDS011;16232;48.800;9.002;2023-07-20T10:22:26;1.70;;;1.07;;
92;SDS011;16232;48.800;9.002;2023-07-20T10:24:55;1.25;;;1.13;;
92;SDS011;16232;48.800;9.002;2023-07-20T10:27:23;1.00;;;0.90;;
92;SDS011;16232;48.800;9.002;2023-07-20T10:29:51;2.53;;;1.40;;
92;SDS011;16232;48.800;9.002;2023-07-20T10:32:20;2.28;;;0.98;;
92;SDS011;16232;48.800;9.002;2023-07-20T10:34:50;1.48;;;1.00;;
92;SDS011;16232;48.800;9.002;2023-07-20T10:40:09;1.00;;;0.90;;
92;SDS011;16232;48.800;9.002;2023-07-20T10:42:50;0.90;;;0.90;;
92;SDS011;16232;48.800;9.002;2023-07-20T10:45:17;2.08;;;0.85;;
92;SDS011;16232;48.800;9.002;2023-07-20T10:47:45;1.60;;;1.10;;
92;SDS011;16232;48.800;9.002;2023-07-20T10:50:12;1.40;;;0.80;;
92;SDS011;16232;48.800;9.002;2023-07-20T10:52:39;3.92;;;0.60;;
92;SDS011;16232;48.800;9.002;2023-07-20T10:55:11;1.85;;;1.05;;
92;SDS011;16232;48.800;9.002;2023-07-20T10:57:41;1.10;;;1.00;;
92;SDS011;16232;48.800;9.002;2023-07-20T11:00:09;1.70;;;1.00;;
92;SDS011;16232;48.800;9.002;2023-07-20T11:02:47;1.30;;;1.13;;
92;SDS011;16232;48.800;9.002;2023-07-20T11:05:34;1.42;;;0.90;;
92;SDS011;16232;48.800;9.002;2023-07-20T11:08:05;1.52;;;1.10;;
92;SDS011;16232;48.800;9.002;2023-07-20T11:10:34;2.58;;;1.27;;
92;SDS011;16232;48.800;9.002;2023-07-20T11:13:17;1.38;;;1.13;;
92;SDS011;16232;48.800;9.002;2023-07-20T11:15:45;2.58;;;1.38;;
92;SDS011;16232;48.800;9.002;2023-07-20T11:18:13;4.93;;;1.10;;
92;SDS011;16232;48.800;9.002;2023-07-20T11:20:41;1.55;;;1.10;;
92;SDS011;16232;48.800;9.002;2023-07-20T11:23:08;1.75;;;1.00;;
92;SDS011;16232;48.800;9.002;2023-07-20T11:25:38;0.95;;;0.90;;
92;SDS011;16232;48.800;9.002;2023-07-20T11:28:08;2.15;;;1.00;;
92;SDS011;16232;48.800;9.002;2023-07-20T11:30:36;1.48;;;0.90;;
92;SDS011;16232;48.800;9.002;2023-07-20T11:33:04;2.55;;;0.90;;
92;SDS011;16232;48.800;9.002;2023-07-20T11:35:34;1.98;;;0.93;;
92;SDS011;16232;48.800;9.002;2023-07-20T11:38:02;1.95;;;0.95;;
92;SDS011;16232;48.800;9.002;2023-07-20T11:40:29;2.20;;;1.10;;
92;SDS011;16232;48.800;9.002;2023-07-20T11:42:58;2.08;;;1.00;;
92;SDS011;16232;48.800;9.002;2023-07-20T11:45:25;1.40;;;1.25;;
92;SDS011;16232;48.800;9.002;2023-07-20T11:47:58;1.20;;;1.10;;
92;SDS011;16232;48.800;9.002;2023-07-20T11:50:26;1.23;;;0.90;;
92;SDS011;16232;48.800;9.002;2023-07-20T11:52:54;1.02;;;0.98;;
92;SDS011;16232;48.800;9.002;2023-07-20T11:55:21;1.83;;;1.00;;
92;SDS011;16232;48.800;9.002;2023-07-20T11:58:01;3.50;;;1.20;;
92;SDS011;16232;48.800;9.002;2023-07-20T12:00:29;1.05;;;0.95;;
92;SDS011;16232;48.800;9.002;2023-07-20T12:02:56;2.20;;;0.90;;
92;SDS011;16232;48.800;9.002;2023-07-20T12:05:23;2.95;;;0.98;;
92;SDS011;16232;48.800;9.002;2023-07-20T12:07:51;1.15;;;0.90;;
92;SDS011;16232;48.800;9.002;2023-07-20T12:10:23;1.20;;;0.90;;
92;SDS011;16232;48.800;9.002;2023-07-20T12:12:50;2.42;;;0.93;;
92;SDS011;16232;48.800;9.002;2023-07-20T12:15:21;2.00;;;1.17;;
92;SDS011;16232;48.800;9.002;2023-07-20T12:17:52;1.23;;;1.10;;
92;SDS011;16232;48.800;9.002;2023-07-20T12:20:26;1.98;;;0.93;;
92;SDS011;16232;48.800;9.002;2023-07-20T12:22:55;1.50;;;0.95;;
92;SDS011;16232;48.800;9.002;2023-07-20T12:25:22;1.38;;;1.00;;
92;SDS011;16232;48.800;9.002;2023-07-20T12:27:50;1.10;;;0.82;;
92;SDS011;16232;48.800;9.002;2023-07-20T12:30:17;1.73;;;1.10;;
92;SDS011;16232;48.800;9.002;2023-07-20T12:32:46;1.38;;;1.10;;
92;SDS011;16232;48.800;9.002;2023-07-20T12:35:13;1.50;;;1.35;;
92;SDS011;16232;48.800;9.002;2023-07-20T12:37:41;2.05;;;0.98;;
92;SDS011;16232;48.800;9.002;2023-07-20T12:40:08;2.25;;;1.10;;
92;SDS011;16232;48.800;9.002;2023-07-20T12:42:36;1.25;;;1.08;;
92;SDS011;16232;48.800;9.002;2023-07-20T12:45:04;1.17;;;0.88;;
92;SDS011;16232;48.800;9.002;2023-07-20T12:47:32;1.05;;;0.95;;
92;SDS011;16232;48.800;9.002;2023-07-20T12:50:00;1.27;;;1.10;;
92;SDS011;16232;48.800;9.002;2023-07-20T12:52:29;2.42;;;1.02;;
92;SDS011;16232;48.800;9.002;2023-07-20T12:54:56;1.13;;;1.00;;
92;SDS011;16232;48.800;9.002;2023-07-20T12:57:24;2.22;;;1.10;;
92;SDS011;16232;48.800;9.002;2023-07-20T12:59:51;1.90;;;1.10;;
92;SDS011;16232;48.800;9.002;2023-07-20T13:02:18;2.03;;;1.05;;
92;SDS011;16232;48.800;9.002;2023-07-20T13:04:45;1.70;;;0.90;;
92;SDS011;16232;48.800;9.002;2023-07-20T13:07:14;2.25;;;0.98;;
92;SDS011;16232;48.800;9.002;2023-07-20T13:09:41;1.45;;;1.00;;
92;SDS011;16232;48.800;9.002;2023-07-20T13:12:09;0.85;;;0.82;;
92;SDS011;16232;48.800;9.002;2023-07-20T13:14:36;1.27;;;1.10;;
92;SDS011;16232;48.800;9.002;2023-07-20T13:17:03;1.30;;;1.20;;
92;SDS011;16232;48.800;9.002;2023-07-20T13:19:31;1.80;;;1.30;;
92;SDS011;16232;48.800;9.002;2023-07-20T13:21:58;1.92;;;0.98;;
92;SDS011;16232;48.800;9.002;2023-07-20T13:24:27;1.10;;;0.90;;
92;SDS011;16232;48.800;9.002;2023-07-20T13:26:54;2.75;;;1.08;;
92;SDS011;16232;48.800;9.002;2023-07-20T13:29:22;1.95;;;1.00;;
92;SDS011;16232;48.800;9.002;2023-07-20T13:31:49;4.00;;;1.30;;
92;SDS011;16232;48.800;9.002;2023-07-20T13:34:16;2.63;;;1.13;;
92;SDS011;16232;48.800;9.002;2023-07-20T13:36:43;0.90;;;0.90;;
92;SDS011;16232;48.800;9.002;2023-07-20T13:39:11;2.20;;;0.90;;
92;SDS011;16232;48.800;9.002;2023-07-20T13:41:39;2.40;;;1.10;;
92;SDS011;16232;48.800;9.002;2023-07-20T13:44:07;1.43;;;1.30;;
92;SDS011;16232;48.800;9.002;2023-07-20T13:46:34;1.40;;;1.30;;
92;SDS011;16232;48.800;9.002;2023-07-20T13:49:01;1.83;;;1.20;;
92;SDS011;16232;48.800;9.002;2023-07-20T13:51:29;2.67;;;1.20;;
92;SDS011;16232;48.800;9.002;2023-07-20T13:53:56;1.53;;;1.10;;
92;SDS011;16232;48.800;9.002;2023-07-20T13:56:24;1.90;;;1.07;;
92;SDS011;16232;48.800;9.002;2023-07-20T13:58:53;1.10;;;1.00;;
92;SDS011;16232;48.800;9.002;2023-07-20T14:01:20;1.27;;;1.10;;
92;SDS011;16232;48.800;9.002;2023-07-20T14:03:48;2.03;;;1.20;;
92;SDS011;16232;48.800;9.002;2023-07-20T14:06:15;1.60;;;1.00;;
92;SDS011;16232;48.800;9.002;2023-07-20T14:08:43;1.23;;;1.03;;
92;SDS011;16232;48.800;9.002;2023-07-20T14:11:11;1.43;;;1.00;;
92;SDS011;16232;48.800;9.002;2023-07-20T14:13:39;2.13;;;1.00;;
92;SDS011;16232;48.800;9.002;2023-07-20T14:16:07;1.17;;;1.00;;
92;SDS011;16232;48.800;9.002;2023-07-20T14:18:35;1.87;;;0.93;;
92;SDS011;16232;48.800;9.002;2023-07-20T14:21:02;1.77;;;1.07;;
92;SDS011;16232;48.800;9.002;2023-07-20T14:23:30;1.40;;;0.90;;
92;SDS011;16232;48.800;9.002;2023-07-20T14:25:58;1.23;;;1.13;;
92;SDS011;16232;48.800;9.002;2023-07-20T14:28:25;1.63;;;1.00;;
92;SDS011;16232;48.800;9.002;2023-07-20T14:30:52;1.20;;;1.10;;
92;SDS011;16232;48.800;9.002;2023-07-20T14:33:21;1.67;;;1.10;;
92;SDS011;16232;48.800;9.002;2023-07-20T14:35:48;2.60;;;1.10;;
92;SDS011;16232;48.800;9.002;2023-07-20T14:38:15;2.30;;;0.87;;
92;SDS011;16232;48.800;9.002;2023-07-20T14:40:43;1.30;;;1.00;;
92;SDS011;16232;48.800;9.002;2023-07-20T14:43:11;2.73;;;1.00;;
92;SDS011;16232;48.800;9.002;2023-07-20T14:45:39;3.10;;;1.10;;
92;SDS011;16232;48.800;9.002;2023-07-20T14:48:07;2.17;;;1.13;;
92;SDS011;16232;48.800;9.002;2023-07-20T14:50:36;1.70;;;1.20;;
92;SDS011;16232;48.800;9.002;2023-07-20T14:53:03;2.27;;;1.10;;
92;SDS011;16232;48.800;9.002;2023-07-20T14:55:30;1.37;;;1.27;;
92;SDS011;16232;48.800;9.002;2023-07-20T14:57:58;1.47;;;1.00;;
92;SDS011;16232;48.800;9.002;2023-07-20T15:00:25;3.27;;;1.00;;
92;SDS011;16232;48.800;9.002;2023-07-20T15:02:52;1.07;;;0.97;;
92;SDS011;16232;48.800;9.002;2023-07-20T15:05:21;1.77;;;1.20;;
92;SDS011;16232;48.800;9.002;2023-07-20T15:07:49;1.97;;;1.00;;
92;SDS011;16232;48.800;9.002;2023-07-20T15:10:17;1.77;;;1.27;;
92;SDS011;16232;48.800;9.002;2023-07-20T15:12:44;1.43;;;1.10;;
92;SDS011;16232;48.800;9.002;2023-07-20T15:15:12;5.10;;;1.07;;
92;SDS011;16232;48.800;9.002;2023-07-20T15:17:41;1.27;;;1.13;;
92;SDS011;16232;48.800;9.002;2023-07-20T15:20:10;1.30;;;1.20;;
92;SDS011;16232;48.800;9.002;2023-07-20T15:22:38;1.27;;;1.00;;
92;SDS011;16232;48.800;9.002;2023-07-20T15:25:08;2.43;;;1.30;;
92;SDS011;16232;48.800;9.002;2023-07-20T15:27:37;3.27;;;1.17;;
92;SDS011;16232;48.800;9.002;2023-07-20T15:30:05;2.23;;;1.00;;
92;SDS011;16232;48.800;9.002;2023-07-20T15:32:32;2.20;;;1.37;;
92;SDS011;16232;48.800;9.002;2023-07-20T15:34:59;1.60;;;0.90;;
92;SDS011;16232;48.800;9.002;2023-07-20T15:37:29;5.80;;;1.43;;
92;SDS011;16232;48.800;9.002;2023-07-20T15:39:56;1.43;;;1.20;;
92;SDS011;16232;48.800;9.002;2023-07-20T15:42:26;3.47;;;1.30;;